Time;durP1;ratioP1;P1;durP2;ratioP2;P2;SDS_P1;SDS_P2;PMS_P1;PMS_P2;Temp;Humidity;BMP_temperature;BMP_pressure;BME280_temperature;BME280_humidity;BME280_pressure;Samples;Min_cycle;Max_cycle;Signal;HPM_P1;HPM_P2
2023/04/17 00:04:39;;;;;;;4.85;4.32;;;;;;;20.45;51.61;102287.78;20664615;28;20101;-76
2023/04/17 00:14:41;;;;;;;4.90;4.40;;;;;;;20.41;51.55;102276.31;20641882;28;20046;-76
2023/04/17 00:24:45;;;;;;;5.63;5.10;;;;;;;20.38;51.42;102277.44;20640690;28;20052;-77
2023/04/17 00:34:49;;;;;;;4.50;4.10;;;;;;;20.37;51.33;102275.72;20650023;28;20489;-77
2023/04/17 00:44:50;;;;;;;5.18;4.68;;;;;;;20.36;51.56;102282.13;20641215;28;20038;-77
2023/04/17 00:54:55;;;;;;;5.45;4.88;;;;;;;20.34;51.37;102281.38;20655956;28;20047;-77
2023/04/17 01:04:57;;;;;;;5.57;4.97;;;;;;;20.33;51.23;102276.94;20629767;28;20038;-76
2023/04/17 01:14:59;;;;;;;6.35;5.28;;;;;;;20.29;51.30;102283.53;20652103;28;20046;-76
2023/04/17 01:25:04;;;;;;;5.13;4.57;;;;;;;20.29;51.22;102288.94;20649654;28;20129;-76
2023/04/17 01:35:09;;;;;;;5.60;5.00;;;;;;;20.28;51.29;102293.50;20645901;28;20138;-76
2023/04/17 01:45:11;;;;;;;5.50;4.90;;;;;;;20.28;51.32;102281.81;20643540;28;20140;-77
2023/04/17 01:55:13;;;;;;;5.82;5.22;;;;;;;20.27;51.29;102290.91;20632283;28;20053;-77
2023/04/17 02:05:15;;;;;;;5.93;5.32;;;;;;;20.27;51.21;102299.03;20644896;28;20038;-77
2023/04/17 02:15:17;;;;;;;6.05;5.45;;;;;;;20.26;51.10;102302.72;20617238;28;20042;-77
2023/04/17 02:25:19;;;;;;;6.13;5.53;;;;;;;20.25;51.10;102301.00;20628854;28;20408;-77
2023/04/17 02:35:23;;;;;;;6.55;5.85;;;;;;;20.23;51.13;102311.06;20629004;28;20062;-76
2023/04/17 02:45:25;;;;;;;6.50;5.80;;;;;;;20.24;51.23;102307.38;20611552;28;20611;-76
2023/04/17 02:55:27;;;;;;;6.50;5.53;;;;;;;20.26;51.23;102303.59;20649818;28;20050;-76
2023/04/17 03:05:30;;;;;;;6.07;5.47;;;;;;;20.29;51.01;102305.19;20660683;28;20046;-76
2023/04/17 03:15:37;;;;;;;6.07;5.47;;;;;;;20.31;50.94;102308.63;20662830;28;20038;-76
2023/04/17 03:25:38;;;;;;;6.43;5.72;;;;;;;20.31;50.92;102316.75;20657579;28;20050;-77
2023/04/17 03:35:45;;;;;;;6.70;5.63;;;;;;;20.29;50.88;102310.59;20635622;28;20054;-76
2023/04/17 03:45:46;;;;;;;6.70;5.97;;;;;;;20.32;50.74;102318.47;20648372;28;20042;-76
2023/04/17 03:55:49;;;;;;;7.43;6.28;;;;;;;20.24;50.73;102310.06;20651286;28;20050;-76
2023/04/17 04:05:59;;;;;;;8.10;6.47;;;;;;;20.30;50.87;102320.41;20656510;28;20059;-75
2023/04/17 04:16:02;;;;;;;7.60;6.80;;;;;;;20.26;50.87;102318.94;20633355;28;20053;-75
2023/04/17 04:26:07;;;;;;;7.65;6.80;;;;;;;20.16;50.70;102312.50;20631525;28;20047;-75
2023/04/17 04:36:19;;;;;;;6.82;6.03;;;;;;;20.19;50.68;102321.25;20645435;28;20056;-75
2023/04/17 04:46:27;;;;;;;7.63;6.82;;;;;;;20.17;50.60;102335.88;20637449;28;20050;-75
2023/04/17 04:56:30;;;;;;;7.20;5.78;;;;;;;20.16;50.68;102344.97;20640394;28;20069;-75
2023/04/17 05:06:34;;;;;;;7.93;6.60;;;;;;;20.16;50.58;102361.19;20620200;28;20431;-75
2023/04/17 05:16:39;;;;;;;6.97;6.28;;;;;;;20.13;50.49;102357.72;20645374;28;20054;-75
2023/04/17 05:26:41;;;;;;;7.90;6.43;;;;;;;20.12;50.65;102387.59;20593647;28;20050;-75
2023/04/17 05:36:48;;;;;;;6.55;5.85;;;;;;;20.10;50.86;102395.81;20633223;28;20418;-83
2023/04/17 05:46:49;;;;;;;5.75;5.22;;;;;;;20.06;50.77;102396.16;20648180;28;20069;-79
2023/04/17 05:56:51;;;;;;;6.97;6.07;;;;;;;20.08;51.25;102399.59;20632062;28;20057;-80
2023/04/17 06:06:53;;;;;;;7.25;6.55;;;;;;;20.12;51.84;102407.38;20636118;28;20046;-80
2023/04/17 06:16:56;;;;;;;6.20;5.60;;;;;;;20.16;52.42;102417.97;20636190;28;20133;-83
2023/04/17 06:27:00;;;;;;;6.87;5.60;;;;;;;20.18;53.21;102424.13;20631419;28;21593;-82
2023/04/17 06:37:05;;;;;;;6.82;5.95;;;;;;;20.20;53.87;102424.88;20626742;28;20578;-82
2023/04/17 06:47:12;;;;;;;7.32;6.03;;;;;;;20.24;54.96;102437.19;20611237;28;20455;-77
2023/04/17 06:57:14;;;;;;;6.18;5.20;;;;;;;20.26;55.38;102432.50;20625356;28;20042;-79
2023/04/17 07:07:15;;;;;;;7.45;5.20;;;;;;;20.29;54.95;102448.50;20620376;28;20467;-82
2023/04/17 07:17:19;;;;;;;6.80;5.67;;;;;;;20.37;54.99;102461.47;20626250;28;21285;-82
2023/04/17 07:27:20;;;;;;;7.95;6.78;;;;;;;20.41;54.82;102454.84;20628410;28;20042;-80
2023/04/17 07:37:24;;;;;;;5.93;5.32;;;;;;;20.38;54.67;102452.38;20605491;28;20045;-80
2023/04/17 07:47:26;;;;;;;6.40;5.47;;;;;;;20.56;54.46;102452.84;20618270;28;20581;-78
2023/04/17 07:57:27;;;;;;;6.20;5.53;;;;;;;20.76;53.52;102472.97;20620648;28;20051;-79
2023/04/17 08:07:29;;;;;;;6.47;5.57;;;;;;;20.83;53.18;102478.81;20634478;28;20450;-78
2023/04/17 08:17:32;;;;;;;5.53;5.03;;;;;;;20.81;53.00;102484.34;20644553;28;20073;-85
2023/04/17 08:27:35;;;;;;;6.32;5.72;;;;;;;20.80;52.80;102481.75;20636770;28;20463;-79
2023/04/17 08:37:37;;;;;;;5.78;5.18;;;;;;;20.80;53.01;102490.72;20635464;28;20046;-75
2023/04/17 08:47:42;;;;;;;6.30;5.70;;;;;;;20.90;53.09;102480.06;20634629;28;20051;-78
2023/04/17 08:57:52;;;;;;;5.68;5.18;;;;;;;20.97;53.05;102483.16;20633779;28;20101;-80
2023/04/17 09:08:08;;;;;;;6.13;5.28;;;;;;;21.01;52.90;102485.50;20635423;28;20054;-81
2023/04/17 09:18:30;;;;;;;6.75;6.15;;;;;;;21.06;52.77;102493.28;20650585;28;20065;-81
2023/04/17 09:28:34;;;;;;;6.20;5.55;;;;;;;21.15;52.43;102497.97;20648861;28;20129;-80
2023/04/17 09:38:36;;;;;;;5.37;4.87;;;;;;;21.09;52.46;102482.22;20642184;28;20050;-79
2023/04/17 09:48:39;;;;;;;5.25;4.57;;;;;;;21.20;52.22;102488.63;20633689;28;20050;-81
2023/04/17 09:58:41;;;;;;;4.70;4.25;;;;;;;21.34;52.11;102495.69;20635244;28;20056;-81
2023/04/17 10:08:43;;;;;;;6.53;4.63;;;;;;;21.43;51.73;102501.25;20623196;28;20082;-81
2023/04/17 10:18:45;;;;;;;4.78;4.38;;;;;;;21.45;51.53;102476.72;20618416;28;20042;-79
2023/04/17 10:28:48;;;;;;;5.85;4.70;;;;;;;21.41;51.41;102476.09;20633546;28;20058;-80
2023/04/17 10:38:49;;;;;;;5.38;4.85;;;;;;;21.38;51.27;102483.63;20641367;28;20314;-80
2023/04/17 10:48:51;;;;;;;4.88;4.38;;;;;;;21.34;51.45;102474.84;20628855;28;20455;-76
2023/04/17 10:58:56;;;;;;;5.63;4.88;;;;;;;21.29;51.34;102472.53;20627040;28;20077;-80
2023/04/17 11:08:58;;;;;;;;;;;;;;;21.32;51.20;102470.56;20640914;28;20053;-79
2023/04/17 11:19:03;;;;;;;4.57;4.18;;;;;;;21.21;51.13;102469.56;20657390;28;19980;-80
2023/04/17 11:29:12;;;;;;;4.75;4.32;;;;;;;21.07;51.02;102456.22;20651538;28;20050;-80
2023/04/17 11:39:17;;;;;;;4.68;4.22;;;;;;;21.08;51.17;102463.38;20650163;28;20074;-80
2023/04/17 11:49:36;;;;;;;5.15;4.40;;;;;;;21.08;50.92;102466.97;20642077;28;20081;-80
2023/04/17 11:59:44;;;;;;;4.60;4.10;;;;;;;21.14;50.74;102468.31;20639277;28;20093;-80
2023/04/17 12:09:54;;;;;;;4.22;3.85;;;;;;;21.09;50.90;102470.50;20635899;28;20054;-81
2023/04/17 12:19:55;;;;;;;4.32;3.92;;;;;;;21.14;50.70;102462.88;20637955;28;20066;-80
2023/04/17 12:29:57;;;;;;;4.82;4.20;;;;;;;21.17;50.58;102459.94;20652914;28;20046;-80
2023/04/17 12:39:58;;;;;;;4.57;4.00;;;;;;;21.12;50.45;102451.31;20646388;28;20046;-81
2023/04/17 12:50:02;;;;;;;4.22;3.83;;;;;;;21.17;50.18;102449.09;20635839;28;20047;-80
2023/04/17 13:00:08;;;;;;;4.28;3.88;;;;;;;21.15;50.01;102449.25;20642382;28;20101;-81
2023/04/17 13:10:10;;;;;;;4.38;3.97;;;;;;;21.16;50.08;102436.53;20653717;28;20210;-79
2023/04/17 13:20:14;;;;;;;4.30;3.90;;;;;;;21.17;49.70;102440.97;20650241;28;20050;-82
2023/04/17 13:30:15;;;;;;;7.07;3.97;;;;;;;21.16;49.82;102447.38;20652022;28;20064;-82
2023/04/17 13:40:19;;;;;;;5.53;4.32;;;;;;;21.17;49.60;102435.56;20651413;28;20422;-82
2023/04/17 13:50:21;;;;;;;5.10;4.60;;;;;;;21.18;49.29;102428.31;20634448;28;20054;-82
2023/04/17 14:00:23;;;;;;;4.13;3.72;;;;;;;21.18;49.14;102418.31;20658956;28;20058;-82
2023/04/17 14:10:27;;;;;;;3.30;3.00;;;;;;;21.17;48.87;102408.47;20631806;28;20054;-81
2023/04/17 14:20:28;;;;;;;3.80;3.00;;;;;;;21.20;48.56;102401.97;20647833;28;20105;-81
2023/04/17 14:30:30;;;;;;;3.58;3.28;;;;;;;21.20;48.22;102394.69;20647991;28;20050;-82
2023/04/17 14:40:31;;;;;;;3.40;3.10;;;;;;;21.19;47.99;102389.41;20633324;28;20054;-82
2023/04/17 14:50:36;;;;;;;3.90;3.60;;;;;;;21.19;47.84;102384.84;20641490;28;20061;-82
2023/04/17 15:00:38;;;;;;;3.53;3.22;;;;;;;21.16;48.04;102379.66;20669658;28;20407;-82
2023/04/17 15:10:40;;;;;;;4.68;3.90;;;;;;;21.14;47.28;102376.22;20663801;28;20077;-80
2023/04/17 15:20:52;;;;;;;3.72;3.40;;;;;;;21.12;47.25;102378.19;20634109;28;20085;-82
2023/04/17 15:30:54;;;;;;;4.03;3.38;;;;;;;21.11;47.10;102371.06;20634428;28;20050;-80
2023/04/17 15:40:58;;;;;;;3.17;2.88;;;;;;;21.09;47.05;102373.91;20678431;28;20528;-73
2023/04/17 15:51:02;;;;;;;3.67;2.90;;;;;;;21.03;47.12;102362.69;20644129;28;20053;-73
2023/04/17 16:01:04;;;;;;;3.50;2.67;;;;;;;21.07;47.13;102372.28;20618424;28;20042;-79
2023/04/17 16:11:09;;;;;;;2.97;2.75;;;;;;;21.03;47.57;102363.56;20638737;28;20054;-72
2023/04/17 16:21:11;;;;;;;3.38;3.03;;;;;;;21.09;48.81;102365.78;20650757;28;20061;-77
2023/04/17 16:31:13;;;;;;;3.05;2.75;;;;;;;21.14;49.59;102373.53;20663669;28;20050;-72
2023/04/17 16:41:19;;;;;;;3.42;2.80;;;;;;;21.20;50.51;102369.47;20650940;28;20067;-72
2023/04/17 16:51:22;;;;;;;3.90;3.00;;;;;;;21.27;52.34;102366.16;20619568;28;20051;-72
2023/04/17 17:01:24;;;;;;;2.55;2.35;;;;;;;21.27;52.63;102365.28;20615682;28;20650;-73
2023/04/17 17:11:25;;;;;;;3.45;2.88;;;;;;;21.24;52.56;102368.25;20623517;28;20062;-78
2023/04/17 17:21:27;;;;;;;3.05;2.42;;;;;;;21.17;51.94;102375.97;20614698;28;20069;-76
2023/04/17 17:31:29;;;;;;;3.63;2.60;;;;;;;21.15;51.88;102389.66;20615958;28;20146;-83
2023/04/17 17:41:30;;;;;;;3.15;2.72;;;;;;;21.13;52.13;102397.03;20612242;28;20053;-70
2023/04/17 17:51:33;;;;;;;3.75;2.90;;;;;;;21.08;51.43;102390.25;20634522;28;20058;-70
2023/04/17 18:01:35;;;;;;;4.63;3.20;;;;;;;20.99;51.49;102395.41;20657723;28;20089;-70
2023/04/17 18:11:37;;;;;;;3.72;3.28;;;;;;;20.92;51.38;102399.59;20656356;28;20051;-70
2023/04/17 18:21:39;;;;;;;3.30;3.00;;;;;;;20.86;51.11;102405.50;20655952;28;20137;-70
2023/04/17 18:31:43;;;;;;;3.47;3.17;;;;;;;20.72;51.02;102399.25;20655851;28;20050;-71
2023/04/17 18:41:45;;;;;;;4.20;3.28;;;;;;;20.72;50.89;102420.91;20655721;28;20477;-70
2023/04/17 18:51:49;;;;;;;4.43;3.47;;;;;;;20.65;50.94;102427.78;20654877;28;20141;-70
2023/04/17 19:01:52;;;;;;;3.00;2.53;;;;;;;20.53;51.07;102415.19;20654959;28;20385;-70
2023/04/17 19:11:55;;;;;;;3.33;3.03;;;;;;;20.56;51.13;102432.06;20654499;28;20054;-70
2023/04/17 19:21:56;;;;;;;4.22;3.40;;;;;;;20.53;50.99;102434.97;20653899;28;20058;-70
2023/04/17 19:32:00;;;;;;;3.33;2.92;;;;;;;20.48;50.93;102433.63;20653445;28;20467;-70
2023/04/17 19:42:04;;;;;;;3.40;3.10;;;;;;;20.47;51.14;102451.69;20663554;28;20056;-70
2023/04/17 19:52:10;;;;;;;3.50;3.17;;;;;;;20.44;50.99;102449.19;20666077;28;20113;-70
2023/04/17 20:02:11;;;;;;;3.92;3.05;;;;;;;20.41;50.73;102462.97;20666609;28;20649;-70
2023/04/17 20:12:13;;;;;;;4.40;3.55;;;;;;;20.40;50.29;102474.75;20666025;28;20057;-70
2023/04/17 20:22:17;;;;;;;4.20;3.30;;;;;;;20.41;51.38;102487.31;20665102;28;20073;-70
2023/04/17 20:32:19;;;;;;;3.75;3.40;;;;;;;20.40;51.61;102497.28;20663704;28;20057;-70
2023/04/17 20:42:23;;;;;;;4.18;3.35;;;;;;;20.34;51.16;102504.97;20663314;28;20525;-70
2023/04/17 20:52:24;;;;;;;3.60;3.07;;;;;;;20.32;50.53;102521.31;20662332;28;20043;-70
2023/04/17 21:02:26;;;;;;;4.47;3.72;;;;;;;20.28;49.89;102519.81;20661673;28;20258;-70
2023/04/17 21:12:31;;;;;;;5.38;3.65;;;;;;;20.24;48.77;102523.72;20661264;28;20052;-70
2023/04/17 21:22:33;;;;;;;4.53;3.67;;;;;;;20.22;47.93;102517.56;20659690;28;20411;-70
2023/04/17 21:32:34;;;;;;;4.35;3.78;;;;;;;20.19;47.16;102525.88;20659117;28;20042;-70
2023/04/17 21:42:38;;;;;;;4.43;3.67;;;;;;;20.17;46.79;102534.13;20641922;28;20578;-70
2023/04/17 21:52:40;;;;;;;4.45;3.47;;;;;;;20.16;46.31;102537.81;20657824;28;20137;-70
2023/04/17 22:02:41;;;;;;;4.30;3.38;;;;;;;20.18;45.81;102540.38;20656403;28;20421;-70
2023/04/17 22:12:43;;;;;;;3.55;3.25;;;;;;;20.17;45.55;102542.25;20655441;28;20054;-70
2023/04/17 22:22:46;;;;;;;3.33;3.03;;;;;;;20.16;45.20;102537.81;20656010;28;20418;-70
2023/04/17 22:32:47;;;;;;;3.20;2.90;;;;;;;20.14;44.66;102537.91;20654736;28;20066;-70
2023/04/17 22:42:50;;;;;;;4.53;3.13;;;;;;;20.13;44.40;102529.94;20653382;28;20050;-70
2023/04/17 22:52:54;;;;;;;4.88;3.65;;;;;;;20.10;44.21;102533.69;20652653;28;20109;-69
2023/04/17 23:02:58;;;;;;;3.53;2.97;;;;;;;20.10;43.69;102538.22;20652952;28;20515;-69
2023/04/17 23:12:59;;;;;;;4.20;3.17;;;;;;;20.08;43.52;102530.25;20659262;28;20471;-69
2023/04/17 23:23:01;;;;;;;4.55;3.28;;;;;;;20.04;43.16;102535.97;20669910;28;20058;-69
2023/04/17 23:33:03;;;;;;;2.80;2.60;;;;;;;20.00;43.09;102538.06;20668713;28;20089;-70
2023/04/17 23:43:05;;;;;;;3.22;2.92;;;;;;;19.95;42.66;102540.22;20667951;28;20077;-69
2023/04/17 23:53:07;;;;;;;3.22;2.78;;;;;;;19.93;42.66;102544.88;20667062;28;20050;-69
